createdAt,value
2022-08-09T00:01:48.401Z,6.55
2022-08-09T00:05:03.012Z,6.65
2022-08-09T00:07:54.875Z,6.77
2022-08-09T00:11:05.803Z,6.28
2022-08-09T00:14:10.165Z,5.55
2022-08-09T00:18:07.548Z,6.37
2022-08-09T00:20:25.039Z,6.72
2022-08-09T00:23:55.684Z,6.37
2022-08-09T00:26:42.066Z,6.58
2022-08-09T00:30:23.648Z,6.87
2022-08-09T00:32:56.277Z,6.17
2022-08-09T00:36:05.599Z,6.95
2022-08-09T00:39:17.009Z,7.33
2022-08-09T00:44:13.997Z,8.15
2022-08-09T00:45:26.329Z,7.67
2022-08-09T00:48:32.302Z,7.58
2022-08-09T00:51:42.611Z,7.65
2022-08-09T00:54:46.661Z,8.20
2022-08-09T00:57:52.317Z,7.95
2022-08-09T01:01:00.822Z,9.10
2022-08-09T01:04:09.262Z,9.28
2022-08-09T01:08:00.146Z,8.85
2022-08-09T01:11:16.053Z,8.85
2022-08-09T01:14:34.205Z,9.85
2022-08-09T01:17:49.322Z,9.98
2022-08-09T01:21:24.832Z,10.38
2022-08-09T01:25:00.837Z,10.13
2022-08-09T01:28:07.722Z,10.03
2022-08-09T01:32:30.334Z,10.50
2022-08-09T01:34:22.076Z,11.05
2022-08-09T01:38:05.871Z,9.93
2022-08-09T01:40:37.838Z,11.12
2022-08-09T01:43:51.975Z,10.28
2022-08-09T01:46:57.392Z,10.30
2022-08-09T01:50:06.565Z,10.10
2022-08-09T01:53:19.217Z,10.13
2022-08-09T01:56:20.420Z,10.58
2022-08-09T01:59:32.643Z,10.80
2022-08-09T02:02:44.048Z,10.30
2022-08-09T02:05:53.466Z,10.82
2022-08-09T02:08:59.710Z,9.90
2022-08-09T02:12:05.198Z,11.18
2022-08-09T02:15:16.780Z,11.08
2022-08-09T02:18:20.862Z,11.10
2022-08-09T02:21:29.312Z,11.30
2022-08-09T02:24:42.138Z,11.60
2022-08-09T02:27:58.276Z,13.25
2022-08-09T02:31:05.955Z,11.40
2022-08-09T02:34:40.762Z,12.47
2022-08-09T02:37:31.687Z,13.35
2022-08-09T02:40:34.093Z,12.35
2022-08-09T02:43:54.251Z,12.95
2022-08-09T02:46:47.089Z,13.55
2022-08-09T02:50:01.936Z,12.58
2022-08-09T02:53:17.279Z,13.45
2022-08-09T02:56:20.998Z,14.25
2022-08-09T02:59:36.435Z,13.62
2022-08-09T03:02:33.824Z,11.60
2022-08-09T03:05:39.844Z,13.58
2022-08-09T03:08:46.231Z,12.93
2022-08-09T03:12:08.444Z,13.80
2022-08-09T03:15:00.831Z,12.58
2022-08-09T03:18:09.871Z,12.45
2022-08-09T03:21:13.849Z,13.22
2022-08-09T03:24:31.426Z,11.97
2022-08-09T03:27:26.445Z,13.03
2022-08-09T03:30:34.088Z,12.43
2022-08-09T03:33:53.982Z,12.47
2022-08-09T03:36:58.258Z,12.90
2022-08-09T03:39:56.716Z,12.18
2022-08-09T03:43:02.012Z,12.37
2022-08-09T03:46:27.026Z,13.18
2022-08-09T03:49:17.292Z,11.55
2022-08-09T03:52:24.004Z,11.60
2022-08-09T03:55:36.271Z,11.22
2022-08-09T03:58:39.094Z,10.75
2022-08-09T04:01:45.986Z,12.07
2022-08-09T04:04:52.470Z,11.18
2022-08-09T04:07:58.629Z,10.10
2022-08-09T04:11:04.073Z,10.70
2022-08-09T04:14:53.129Z,10.85
2022-08-09T04:17:18.193Z,11.10
2022-08-09T04:20:25.614Z,12.23
2022-08-09T04:23:31.567Z,10.85
2022-08-09T04:26:38.471Z,12.65
2022-08-09T04:29:50.075Z,10.30
2022-08-09T04:32:51.646Z,12.33
2022-08-09T04:35:58.462Z,11.20
2022-08-09T04:38:57.112Z,11.15
2022-08-09T04:41:44.052Z,11.57
2022-08-09T04:44:37.372Z,10.53
2022-08-09T04:47:23.074Z,9.63
2022-08-09T04:50:19.686Z,10.38
2022-08-09T04:53:13.607Z,10.38
2022-08-09T04:56:06.338Z,10.68
2022-08-09T04:58:53.253Z,10.08
2022-08-09T05:01:47.230Z,11.38
2022-08-09T05:04:34.206Z,10.10
2022-08-09T05:07:27.712Z,9.18
2022-08-09T05:10:15.806Z,8.25
2022-08-09T05:13:07.899Z,8.85
2022-08-09T05:16:15.170Z,7.58
2022-08-09T05:19:24.461Z,7.30
2022-08-09T05:22:36.231Z,7.28
2022-08-09T05:25:36.429Z,6.70
2022-08-09T05:28:42.338Z,6.83
2022-08-09T05:31:56.271Z,6.92
2022-08-09T05:34:56.705Z,7.47
2022-08-09T05:38:21.776Z,6.45
2022-08-09T05:41:23.319Z,7.75
2022-08-09T05:44:32.872Z,7.22
2022-08-09T05:47:51.585Z,7.67
2022-08-09T05:50:51.054Z,6.60
2022-08-09T05:53:57.682Z,6.08
2022-08-09T05:57:02.792Z,6.72
2022-08-09T06:00:10.225Z,6.37
2022-08-09T06:03:20.064Z,6.62
2022-08-09T06:06:24.533Z,7.10
2022-08-09T06:09:54.400Z,6.62
2022-08-09T06:12:37.671Z,7.20
2022-08-09T06:15:43.105Z,6.72
2022-08-09T06:18:49.863Z,7.17
2022-08-09T06:21:58.645Z,7.15
2022-08-09T06:25:04.491Z,5.78
2022-08-09T06:28:12.593Z,6.35
2022-08-09T06:31:18.741Z,6.85
2022-08-09T06:34:30.702Z,6.87
2022-08-09T06:37:52.891Z,6.60
2022-08-09T06:40:41.724Z,6.47
2022-08-09T06:43:48.112Z,6.58
2022-08-09T06:46:55.793Z,6.83
2022-08-09T06:50:14.274Z,7.20
2022-08-09T06:53:09.497Z,7.67
2022-08-09T06:56:16.443Z,8.03
2022-08-09T07:00:51.245Z,7.58
2022-08-09T07:02:31.743Z,8.23
2022-08-09T07:06:02.369Z,8.70
2022-08-09T07:08:49.704Z,7.17
2022-08-09T07:11:55.092Z,8.10
2022-08-09T07:15:53.167Z,8.18
2022-08-09T07:18:10.243Z,7.60
2022-08-09T07:21:15.564Z,8.15
2022-08-09T07:24:21.867Z,7.53
2022-08-09T07:27:34.495Z,7.80
2022-08-09T07:30:36.419Z,7.97
2022-08-09T07:33:53.296Z,7.83
2022-08-09T07:36:53.503Z,7.53
2022-08-09T07:39:59.816Z,7.15
2022-08-09T07:43:16.699Z,8.40
2022-08-09T07:46:21.777Z,7.92
2022-08-09T07:49:29.451Z,8.63
2022-08-09T07:52:36.069Z,7.62
2022-08-09T07:56:05.833Z,9.10
2022-08-09T07:58:48.344Z,9.90
2022-08-09T08:01:55.933Z,9.03
2022-08-09T08:05:01.307Z,8.63
2022-08-09T08:09:00.003Z,9.08
2022-08-09T08:12:08.737Z,8.98
2022-08-09T08:14:14.260Z,9.55
2022-08-09T08:17:24.875Z,9.63
2022-08-09T08:20:32.251Z,8.35
2022-08-09T08:23:37.188Z,8.68
2022-08-09T08:26:54.668Z,8.93
2022-08-09T08:29:52.383Z,7.47
2022-08-09T08:32:59.985Z,7.03
2022-08-09T08:36:05.613Z,6.25
2022-08-09T08:39:11.066Z,5.53
2022-08-09T08:42:16.597Z,6.10
2022-08-09T08:45:37.237Z,4.83
2022-08-09T08:48:31.168Z,4.78
2022-08-09T08:51:38.688Z,4.50
2022-08-09T08:54:44.426Z,4.80
2022-08-09T08:57:57.271Z,4.70
2022-08-09T09:00:58.294Z,4.42
2022-08-09T09:04:04.135Z,4.28
2022-08-09T09:07:12.670Z,4.50
2022-08-09T09:10:21.289Z,3.77
2022-08-09T09:13:41.952Z,3.80
2022-08-09T09:16:40.296Z,4.53
2022-08-09T09:19:47.059Z,4.10
2022-08-09T09:23:10.076Z,3.60
2022-08-09T09:26:16.628Z,3.20
2022-08-09T09:29:19.052Z,3.87
2022-08-09T09:32:32.428Z,3.37
2022-08-09T09:35:33.218Z,3.52
2022-08-09T09:38:38.426Z,3.15
2022-08-09T09:41:49.890Z,3.55
2022-08-09T09:44:54.162Z,3.25
2022-08-09T09:48:01.952Z,2.95
2022-08-09T09:51:11.721Z,3.58
2022-08-09T09:54:27.002Z,4.90
2022-08-09T09:58:02.983Z,3.67
2022-08-09T10:00:43.274Z,4.25
2022-08-09T10:04:00.126Z,4.60
2022-08-09T10:07:10.046Z,3.83
2022-08-09T10:10:14.354Z,3.85
2022-08-09T10:13:42.815Z,4.50
2022-08-09T10:16:58.288Z,3.90
2022-08-09T10:19:29.650Z,4.12
2022-08-09T10:22:45.614Z,4.28
2022-08-09T10:26:04.941Z,3.65
2022-08-09T10:29:22.470Z,3.22
2022-08-09T10:35:08.050Z,2.50
2022-08-09T10:38:41.713Z,2.67
2022-08-09T10:41:21.581Z,2.75
2022-08-09T10:44:26.746Z,2.10
2022-08-09T10:48:19.402Z,2.05
2022-08-09T10:51:14.091Z,2.42
2022-08-09T10:54:21.252Z,2.35
2022-08-09T10:57:29.707Z,2.55
2022-08-09T11:01:10.977Z,2.22
2022-08-09T11:04:30.381Z,2.85
2022-08-09T11:07:57.337Z,2.40
2022-08-09T11:11:08.452Z,2.58
2022-08-09T11:14:48.897Z,2.60
2022-08-09T11:18:03.850Z,2.47
2022-08-09T11:21:05.878Z,2.60
2022-08-09T11:24:17.753Z,2.45
2022-08-09T11:28:03.857Z,2.37
2022-08-09T11:30:52.877Z,2.55
2022-08-09T11:34:04.625Z,2.40
2022-08-09T11:37:18.428Z,2.72
2022-08-09T11:40:21.504Z,2.30
2022-08-09T11:43:41.735Z,2.58
2022-08-09T11:47:10.994Z,2.37
2022-08-09T11:50:54.953Z,2.65
2022-08-09T11:53:58.835Z,2.55
2022-08-09T11:56:42.441Z,2.00
2022-08-09T11:59:46.579Z,2.40
2022-08-09T12:02:54.792Z,2.08
2022-08-09T12:06:01.730Z,2.30
2022-08-09T12:09:19.119Z,2.20
2022-08-09T12:15:49.297Z,2.40
2022-08-09T12:18:49.043Z,2.30
2022-08-09T12:22:00.808Z,2.12
2022-08-09T12:25:09.666Z,1.85
2022-08-09T12:29:12.464Z,1.85
2022-08-09T12:32:01.838Z,2.03
2022-08-09T12:34:55.763Z,1.82
2022-08-09T12:38:02.990Z,1.90
2022-08-09T12:41:09.481Z,1.92
2022-08-09T12:44:15.840Z,2.30
2022-08-09T12:47:23.308Z,1.80
2022-08-09T12:50:30.359Z,2.15
2022-08-09T12:53:53.252Z,1.87
2022-08-09T12:57:02.742Z,1.62
2022-08-09T13:00:08.184Z,1.60
2022-08-09T13:03:24.605Z,1.62
2022-08-09T13:06:23.354Z,1.75
2022-08-09T13:09:52.618Z,2.05
2022-08-09T13:13:10.919Z,2.12
2022-08-09T13:16:12.810Z,2.00
2022-08-09T13:19:19.354Z,1.55
2022-08-09T13:23:05.185Z,1.40
2022-08-09T13:25:53.069Z,1.45
2022-08-09T13:28:49.691Z,1.50
2022-08-09T13:32:25.474Z,2.10
2022-08-09T13:35:26.055Z,1.70
2022-08-09T13:38:55.805Z,1.30
2022-08-09T13:41:57.272Z,1.45
2022-08-09T13:44:48.720Z,1.75
2022-08-09T13:47:59.055Z,1.50
2022-08-09T13:51:02.105Z,2.00
2022-08-09T13:54:08.291Z,1.60
2022-08-09T13:57:35.360Z,1.50
2022-08-09T14:00:39.696Z,1.45
2022-08-09T14:04:03.339Z,1.70
2022-08-09T14:06:47.256Z,2.08
2022-08-09T14:09:54.392Z,1.70
2022-08-09T14:13:02.202Z,2.20
2022-08-09T14:16:11.265Z,2.40
2022-08-09T14:19:16.386Z,2.42
2022-08-09T14:22:23.560Z,2.17
2022-08-09T14:25:31.314Z,2.20
2022-08-09T14:28:36.777Z,2.27
2022-08-09T14:31:51.810Z,2.33
2022-08-09T14:34:55.646Z,2.65
2022-08-09T14:38:02.393Z,2.50
2022-08-09T14:41:12.824Z,2.35
2022-08-09T14:44:11.141Z,2.37
2022-08-09T14:47:29.021Z,2.20
2022-08-09T14:50:26.317Z,2.10
2022-08-09T14:53:33.382Z,2.62
2022-08-09T14:56:53.640Z,2.45
2022-08-09T14:59:48.752Z,2.80
2022-08-09T15:02:56.068Z,1.95
2022-08-09T15:06:03.962Z,2.67
2022-08-09T15:09:10.536Z,3.02
2022-08-09T15:12:16.340Z,2.83
2022-08-09T15:15:28.512Z,2.75
2022-08-09T15:18:25.399Z,2.70
2022-08-09T15:21:58.872Z,2.58
2022-08-09T15:24:27.413Z,2.52
2022-08-09T15:27:47.845Z,2.35
2022-08-09T15:30:59.254Z,2.95
2022-08-09T15:34:19.558Z,2.77
2022-08-09T15:36:56.227Z,3.02
2022-08-09T15:40:04.623Z,2.40
2022-08-09T15:43:13.446Z,3.10
2022-08-09T15:46:31.585Z,2.90
2022-08-09T15:49:23.534Z,3.15
2022-08-09T15:52:25.725Z,2.85
2022-08-09T15:55:31.308Z,2.87
2022-08-09T15:58:38.310Z,2.50
2022-08-09T16:01:41.208Z,2.80
2022-08-09T16:04:35.514Z,2.60
2022-08-09T16:07:45.769Z,3.22
2022-08-09T16:10:56.050Z,2.75
2022-08-09T16:14:02.960Z,2.90
2022-08-09T16:17:04.728Z,2.77
2022-08-09T16:20:12.745Z,2.55
2022-08-09T16:23:19.986Z,3.00
2022-08-09T16:26:34.871Z,2.67
2022-08-09T16:29:36.622Z,2.85
2022-08-09T16:33:00.737Z,3.12
2022-08-09T16:36:13.159Z,2.80
2022-08-09T16:39:14.637Z,2.62
2022-08-09T16:42:23.987Z,3.20
2022-08-09T16:45:22.003Z,3.20
2022-08-09T16:48:42.025Z,3.37
2022-08-09T16:51:35.946Z,3.15
2022-08-09T16:54:41.583Z,3.52
2022-08-09T16:58:08.568Z,3.20
2022-08-09T17:01:11.113Z,3.60
2022-08-09T17:04:28.370Z,3.42
2022-08-09T17:08:45.941Z,3.65
2022-08-09T17:10:32.837Z,3.12
2022-08-09T17:13:39.618Z,3.60
2022-08-09T17:16:46.660Z,3.98
2022-08-09T17:20:32.308Z,4.37
2022-08-09T17:22:59.023Z,4.53
2022-08-09T17:26:05.678Z,4.17
2022-08-09T17:29:20.729Z,4.37
2022-08-09T17:32:34.657Z,4.60
2022-08-09T17:35:27.314Z,4.25
2022-08-09T17:38:39.035Z,5.22
2022-08-09T17:41:41.591Z,4.87
2022-08-09T17:44:49.140Z,5.50
2022-08-09T17:48:02.400Z,7.70
2022-08-09T17:51:10.111Z,8.90
2022-08-09T17:54:10.202Z,9.88
2022-08-09T17:57:20.619Z,8.10
2022-08-09T18:00:43.970Z,8.03
2022-08-09T18:03:33.053Z,6.97
2022-08-09T18:06:39.166Z,6.37
2022-08-09T18:10:04.141Z,6.20
2022-08-09T18:13:40.195Z,6.47
2022-08-09T18:16:07.632Z,6.85
2022-08-09T18:20:56.769Z,6.20
2022-08-09T18:22:19.719Z,5.85
2022-08-09T18:25:52.478Z,6.78
2022-08-09T18:30:40.545Z,6.97
2022-08-09T18:31:55.137Z,7.47
2022-08-09T18:34:50.551Z,8.10
2022-08-09T18:37:58.149Z,7.00
2022-08-09T18:41:03.614Z,6.78
2022-08-09T18:44:12.962Z,5.70
2022-08-09T18:47:20.682Z,5.97
2022-08-09T18:50:25.056Z,6.35
2022-08-09T18:53:55.997Z,6.85
2022-08-09T18:56:39.813Z,7.08
2022-08-09T18:59:48.826Z,6.95
2022-08-09T19:02:54.270Z,6.55
2022-08-09T19:06:03.162Z,6.97
2022-08-09T19:09:07.311Z,6.65
2022-08-09T19:12:14.658Z,7.47
2022-08-09T19:15:22.814Z,7.75
2022-08-09T19:18:32.974Z,8.73
2022-08-09T19:21:52.101Z,8.40
2022-08-09T19:25:11.631Z,9.28
2022-08-09T19:27:53.712Z,8.90
2022-08-09T19:31:00.776Z,11.40
2022-08-09T19:34:06.896Z,12.53
2022-08-09T19:37:16.795Z,11.85
2022-08-09T19:40:22.918Z,10.10
2022-08-09T19:43:58.047Z,8.25
2022-08-09T19:46:50.192Z,7.60
2022-08-09T19:50:08.382Z,7.20
2022-08-09T19:52:52.622Z,8.23
2022-08-09T19:56:03.087Z,7.50
2022-08-09T19:59:06.283Z,6.45
2022-08-09T20:02:18.335Z,6.42
2022-08-09T20:05:23.758Z,6.37
2022-08-09T20:08:35.429Z,7.00
2022-08-09T20:11:48.850Z,7.25
2022-08-09T20:14:50.488Z,7.37
2022-08-09T20:17:54.310Z,8.08
2022-08-09T20:20:58.062Z,8.25
2022-08-09T20:24:04.104Z,8.03
2022-08-09T20:27:11.564Z,7.53
2022-08-09T20:30:21.856Z,8.20
2022-08-09T20:33:25.671Z,8.60
2022-08-09T20:36:33.161Z,8.13
2022-08-09T20:40:14.738Z,8.60
2022-08-09T20:43:00.366Z,7.95
2022-08-09T20:45:59.794Z,8.15
2022-08-09T20:48:56.695Z,7.87
2022-08-09T20:52:03.123Z,7.33
2022-08-09T20:55:09.333Z,8.25
2022-08-09T20:58:20.262Z,7.78
2022-08-09T21:01:34.539Z,7.37
2022-08-09T21:05:49.408Z,8.30
2022-08-09T21:07:40.433Z,8.45
2022-08-09T21:10:53.211Z,8.20
2022-08-09T21:13:59.703Z,9.50
2022-08-09T21:18:11.465Z,8.25
2022-08-09T21:20:22.580Z,8.13
2022-08-09T21:23:16.694Z,8.43
2022-08-09T21:26:22.771Z,8.33
2022-08-09T21:29:30.522Z,8.75
2022-08-09T21:32:33.416Z,8.75
2022-08-09T21:35:39.515Z,8.43
2022-08-09T21:38:56.927Z,9.30
2022-08-09T21:42:03.782Z,8.28
2022-08-09T21:45:03.843Z,9.40
2022-08-09T21:48:10.762Z,9.55
2022-08-09T21:51:24.250Z,10.00
2022-08-09T21:54:09.142Z,8.98
2022-08-09T21:57:59.903Z,9.83
2022-08-09T22:00:52.283Z,10.75
2022-08-09T22:03:59.797Z,10.25
2022-08-09T22:07:06.143Z,10.75
2022-08-09T22:10:12.715Z,10.78
2022-08-09T22:13:19.487Z,11.45
2022-08-09T22:16:18.928Z,11.40
2022-08-09T22:19:58.674Z,11.50
2022-08-09T22:22:33.841Z,10.45
2022-08-09T22:26:07.822Z,11.53
2022-08-09T22:28:53.846Z,12.37
2022-08-09T22:31:56.880Z,11.78
2022-08-09T22:35:02.356Z,12.70
2022-08-09T22:38:08.731Z,13.45
2022-08-09T22:41:15.096Z,12.68
2022-08-09T22:44:21.153Z,12.73
2022-08-09T22:48:16.602Z,13.15
2022-08-09T22:50:33.036Z,13.72
2022-08-09T22:53:44.327Z,13.45
2022-08-09T22:56:45.252Z,13.38
2022-08-09T22:59:58.383Z,13.10
2022-08-09T23:03:00.115Z,12.60
2022-08-09T23:06:07.365Z,13.62
2022-08-09T23:09:16.084Z,13.20
2022-08-09T23:12:21.895Z,12.55
2022-08-09T23:15:27.381Z,11.68
2022-08-09T23:18:33.190Z,12.15
2022-08-09T23:21:39.633Z,12.63
2022-08-09T23:24:45.363Z,12.90
2022-08-09T23:28:13.963Z,12.60
2022-08-09T23:31:00.407Z,12.50
2022-08-09T23:34:05.820Z,13.10
2022-08-09T23:37:11.261Z,12.88
2022-08-09T23:40:16.199Z,13.10
2022-08-09T23:43:21.533Z,12.93
2022-08-09T23:46:28.470Z,12.20
2022-08-09T23:49:34.455Z,13.28
2022-08-09T23:52:40.551Z,12.58
2022-08-09T23:55:49.363Z,13.43
2022-08-09T23:58:54.757Z,13.83
